Terminal Aerodrome Forecast
Issued by NWS

Home | Current Version | Previous Version | Text Only | Print | Product List | Glossary On
Versions: 1 2 3 4 5 6 7 8 9 10 11 12
796
FTUS41 KBTV 201720
TAFRUT
TAF
KRUT 201720Z 2018/2118 29009G15KT P6SM SKC
     FM202100 32006KT P6SM SKC
     FM210400 14004KT P6SM SKC
     FM211700 31004KT P6SM SKC=

USA.gov is the U.S. government's official web portal to all federal, state and local government web resources and services.